sensor_id;sensor_type;location;lat;lon;timestamp;P1;durP1;ratioP1;P2;durP2;ratioP2
79229;SDS011;68663;49.122;17.544;2023-03-23T00:00:50;4.55;;;2.50;;
79229;SDS011;68663;49.122;17.544;2023-03-23T00:03:17;3.78;;;2.33;;
79229;SDS011;68663;49.122;17.544;2023-03-23T00:05:43;3.58;;;2.17;;
79229;SDS011;68663;49.122;17.544;2023-03-23T00:08:15;3.28;;;2.10;;
79229;SDS011;68663;49.122;17.544;2023-03-23T00:10:42;4.72;;;2.38;;
79229;SDS011;68663;49.122;17.544;2023-03-23T00:13:07;5.33;;;2.40;;
79229;SDS011;68663;49.122;17.544;2023-03-23T00:15:32;3.92;;;2.47;;
79229;SDS011;68663;49.122;17.544;2023-03-23T00:17:58;4.32;;;2.38;;
79229;SDS011;68663;49.122;17.544;2023-03-23T00:20:27;2.75;;;1.95;;
79229;SDS011;68663;49.122;17.544;2023-03-23T00:22:54;3.50;;;2.35;;
79229;SDS011;68663;49.122;17.544;2023-03-23T00:25:24;2.80;;;2.30;;
79229;SDS011;68663;49.122;17.544;2023-03-23T00:27:50;4.43;;;2.60;;
79229;SDS011;68663;49.122;17.544;2023-03-23T00:30:15;5.10;;;2.57;;
79229;SDS011;68663;49.122;17.544;2023-03-23T00:32:41;3.63;;;2.60;;
79229;SDS011;68663;49.122;17.544;2023-03-23T00:35:06;4.32;;;2.40;;
79229;SDS011;68663;49.122;17.544;2023-03-23T00:37:33;3.20;;;2.00;;
79229;SDS011;68663;49.122;17.544;2023-03-23T00:40:00;3.90;;;2.03;;
79229;SDS011;68663;49.122;17.544;2023-03-23T00:42:33;2.80;;;2.03;;
79229;SDS011;68663;49.122;17.544;2023-03-23T00:45:02;3.45;;;2.80;;
79229;SDS011;68663;49.122;17.544;2023-03-23T00:47:35;2.90;;;1.90;;
79229;SDS011;68663;49.122;17.544;2023-03-23T00:50:02;2.47;;;2.00;;
79229;SDS011;68663;49.122;17.544;2023-03-23T00:52:30;3.10;;;2.40;;
79229;SDS011;68663;49.122;17.544;2023-03-23T00:54:55;2.63;;;1.92;;
79229;SDS011;68663;49.122;17.544;2023-03-23T00:57:21;4.35;;;2.30;;
79229;SDS011;68663;49.122;17.544;2023-03-23T00:59:49;3.53;;;2.08;;
79229;SDS011;68663;49.122;17.544;2023-03-23T01:02:15;3.65;;;2.60;;
79229;SDS011;68663;49.122;17.544;2023-03-23T01:04:41;2.38;;;1.95;;
79229;SDS011;68663;49.122;17.544;2023-03-23T01:07:09;2.63;;;2.00;;
79229;SDS011;68663;49.122;17.544;2023-03-23T01:09:37;2.60;;;2.10;;
79229;SDS011;68663;49.122;17.544;2023-03-23T01:12:10;3.28;;;2.28;;
79229;SDS011;68663;49.122;17.544;2023-03-23T01:14:36;3.55;;;2.10;;
79229;SDS011;68663;49.122;17.544;2023-03-23T01:17:02;3.53;;;2.10;;
79229;SDS011;68663;49.122;17.544;2023-03-23T01:19:27;3.00;;;2.30;;
79229;SDS011;68663;49.122;17.544;2023-03-23T01:21:53;3.17;;;2.23;;
79229;SDS011;68663;49.122;17.544;2023-03-23T01:24:18;3.90;;;2.00;;
79229;SDS011;68663;49.122;17.544;2023-03-23T01:26:43;5.37;;;2.47;;
79229;SDS011;68663;49.122;17.544;2023-03-23T01:29:09;2.60;;;1.95;;
79229;SDS011;68663;49.122;17.544;2023-03-23T01:31:35;3.15;;;2.30;;
79229;SDS011;68663;49.122;17.544;2023-03-23T01:34:02;4.97;;;2.30;;
79229;SDS011;68663;49.122;17.544;2023-03-23T01:36:28;3.13;;;2.35;;
79229;SDS011;68663;49.122;17.544;2023-03-23T01:38:57;3.75;;;1.90;;
79229;SDS011;68663;49.122;17.544;2023-03-23T01:41:24;2.63;;;1.95;;
79229;SDS011;68663;49.122;17.544;2023-03-23T01:44:03;3.75;;;2.05;;
79229;SDS011;68663;49.122;17.544;2023-03-23T01:46:32;4.00;;;2.15;;
79229;SDS011;68663;49.122;17.544;2023-03-23T01:49:20;3.20;;;2.05;;
79229;SDS011;68663;49.122;17.544;2023-03-23T01:51:49;2.92;;;1.70;;
79229;SDS011;68663;49.122;17.544;2023-03-23T01:54:21;3.38;;;2.10;;
79229;SDS011;68663;49.122;17.544;2023-03-23T01:56:50;2.65;;;2.00;;
79229;SDS011;68663;49.122;17.544;2023-03-23T01:59:27;3.40;;;2.00;;
79229;SDS011;68663;49.122;17.544;2023-03-23T02:01:55;4.95;;;2.00;;
79229;SDS011;68663;49.122;17.544;2023-03-23T02:04:21;3.10;;;1.98;;
79229;SDS011;68663;49.122;17.544;2023-03-23T02:09:15;2.45;;;1.83;;
79229;SDS011;68663;49.122;17.544;2023-03-23T02:11:45;3.60;;;2.00;;
79229;SDS011;68663;49.122;17.544;2023-03-23T02:14:11;3.83;;;2.15;;
79229;SDS011;68663;49.122;17.544;2023-03-23T02:16:45;2.38;;;1.60;;
79229;SDS011;68663;49.122;17.544;2023-03-23T02:27:11;2.30;;;1.90;;
79229;SDS011;68663;49.122;17.544;2023-03-23T02:36:01;2.50;;;1.73;;
79229;SDS011;68663;49.122;17.544;2023-03-23T02:38:18;3.88;;;2.20;;
79229;SDS011;68663;49.122;17.544;2023-03-23T02:40:49;2.72;;;1.90;;
79229;SDS011;68663;49.122;17.544;2023-03-23T02:43:17;2.13;;;1.70;;
79229;SDS011;68663;49.122;17.544;2023-03-23T02:45:46;3.70;;;2.33;;
79229;SDS011;68663;49.122;17.544;2023-03-23T02:48:14;2.42;;;1.88;;
79229;SDS011;68663;49.122;17.544;2023-03-23T02:50:45;2.78;;;2.05;;
79229;SDS011;68663;49.122;17.544;2023-03-23T02:53:16;2.63;;;1.98;;
79229;SDS011;68663;49.122;17.544;2023-03-23T02:55:45;3.25;;;2.00;;
79229;SDS011;68663;49.122;17.544;2023-03-23T02:58:12;2.55;;;1.70;;
79229;SDS011;68663;49.122;17.544;2023-03-23T03:00:38;2.95;;;2.03;;
79229;SDS011;68663;49.122;17.544;2023-03-23T03:03:04;2.60;;;1.67;;
79229;SDS011;68663;49.122;17.544;2023-03-23T03:11:14;3.72;;;2.08;;
79229;SDS011;68663;49.122;17.544;2023-03-23T03:13:48;2.65;;;2.03;;
79229;SDS011;68663;49.122;17.544;2023-03-23T03:16:22;2.95;;;1.70;;
79229;SDS011;68663;49.122;17.544;2023-03-23T03:18:56;3.47;;;1.95;;
79229;SDS011;68663;49.122;17.544;2023-03-23T03:21:27;2.83;;;2.20;;
79229;SDS011;68663;49.122;17.544;2023-03-23T03:23:58;2.47;;;1.90;;
79229;SDS011;68663;49.122;17.544;2023-03-23T03:26:29;2.70;;;1.83;;
79229;SDS011;68663;49.122;17.544;2023-03-23T03:31:26;2.72;;;2.05;;
79229;SDS011;68663;49.122;17.544;2023-03-23T03:33:54;2.38;;;1.80;;
79229;SDS011;68663;49.122;17.544;2023-03-23T03:36:21;2.75;;;1.70;;
79229;SDS011;68663;49.122;17.544;2023-03-23T03:38:51;2.58;;;1.80;;
79229;SDS011;68663;49.122;17.544;2023-03-23T03:41:17;2.53;;;1.92;;
79229;SDS011;68663;49.122;17.544;2023-03-23T03:43:44;2.50;;;1.88;;
79229;SDS011;68663;49.122;17.544;2023-03-23T03:46:10;3.00;;;1.80;;
79229;SDS011;68663;49.122;17.544;2023-03-23T03:48:35;2.67;;;1.90;;
79229;SDS011;68663;49.122;17.544;2023-03-23T03:51:01;4.15;;;2.10;;
79229;SDS011;68663;49.122;17.544;2023-03-23T03:53:27;2.47;;;1.77;;
79229;SDS011;68663;49.122;17.544;2023-03-23T03:55:53;2.08;;;1.63;;
79229;SDS011;68663;49.122;17.544;2023-03-23T03:58:21;2.58;;;1.90;;
79229;SDS011;68663;49.122;17.544;2023-03-23T04:00:47;4.03;;;1.73;;
79229;SDS011;68663;49.122;17.544;2023-03-23T04:03:13;3.40;;;1.70;;
79229;SDS011;68663;49.122;17.544;2023-03-23T04:05:40;3.05;;;1.90;;
79229;SDS011;68663;49.122;17.544;2023-03-23T04:08:06;2.67;;;1.80;;
79229;SDS011;68663;49.122;17.544;2023-03-23T04:10:32;2.45;;;1.80;;
79229;SDS011;68663;49.122;17.544;2023-03-23T04:12:58;2.33;;;1.63;;
79229;SDS011;68663;49.122;17.544;2023-03-23T04:15:25;3.47;;;2.03;;
79229;SDS011;68663;49.122;17.544;2023-03-23T04:17:51;3.25;;;1.90;;
79229;SDS011;68663;49.122;17.544;2023-03-23T04:20:16;3.13;;;1.83;;
79229;SDS011;68663;49.122;17.544;2023-03-23T04:22:45;2.80;;;2.10;;
79229;SDS011;68663;49.122;17.544;2023-03-23T04:25:14;2.20;;;1.70;;
79229;SDS011;68663;49.122;17.544;2023-03-23T04:27:42;2.90;;;1.80;;
79229;SDS011;68663;49.122;17.544;2023-03-23T04:30:09;6.00;;;2.22;;
79229;SDS011;68663;49.122;17.544;2023-03-23T04:32:36;2.03;;;1.75;;
79229;SDS011;68663;49.122;17.544;2023-03-23T04:35:05;2.75;;;1.95;;
79229;SDS011;68663;49.122;17.544;2023-03-23T04:37:31;2.20;;;1.70;;
79229;SDS011;68663;49.122;17.544;2023-03-23T04:39:57;4.07;;;1.70;;
79229;SDS011;68663;49.122;17.544;2023-03-23T04:42:29;2.72;;;1.75;;
79229;SDS011;68663;49.122;17.544;2023-03-23T04:44:56;1.95;;;1.60;;
79229;SDS011;68663;49.122;17.544;2023-03-23T04:47:23;2.20;;;1.60;;
79229;SDS011;68663;49.122;17.544;2023-03-23T04:49:50;2.75;;;1.88;;
79229;SDS011;68663;49.122;17.544;2023-03-23T04:52:16;3.10;;;1.83;;
79229;SDS011;68663;49.122;17.544;2023-03-23T04:54:42;3.80;;;1.80;;
79229;SDS011;68663;49.122;17.544;2023-03-23T04:57:09;2.00;;;1.80;;
79229;SDS011;68663;49.122;17.544;2023-03-23T04:59:34;2.25;;;1.70;;
79229;SDS011;68663;49.122;17.544;2023-03-23T05:02:00;3.03;;;1.67;;
79229;SDS011;68663;49.122;17.544;2023-03-23T05:04:26;2.97;;;1.85;;
79229;SDS011;68663;49.122;17.544;2023-03-23T05:06:51;4.13;;;1.93;;
79229;SDS011;68663;49.122;17.544;2023-03-23T05:09:18;3.38;;;2.20;;
79229;SDS011;68663;49.122;17.544;2023-03-23T05:11:44;3.80;;;1.92;;
79229;SDS011;68663;49.122;17.544;2023-03-23T05:14:09;4.40;;;2.22;;
79229;SDS011;68663;49.122;17.544;2023-03-23T05:16:35;5.03;;;2.10;;
79229;SDS011;68663;49.122;17.544;2023-03-23T05:19:02;39.67;;;9.93;;
79229;SDS011;68663;49.122;17.544;2023-03-23T05:21:29;49.33;;;13.70;;
79229;SDS011;68663;49.122;17.544;2023-03-23T05:23:55;41.42;;;10.30;;
79229;SDS011;68663;49.122;17.544;2023-03-23T05:26:21;36.97;;;10.73;;
79229;SDS011;68663;49.122;17.544;2023-03-23T05:28:48;30.58;;;9.93;;
79229;SDS011;68663;49.122;17.544;2023-03-23T05:31:17;30.05;;;9.13;;
79229;SDS011;68663;49.122;17.544;2023-03-23T05:33:43;33.08;;;8.77;;
79229;SDS011;68663;49.122;17.544;2023-03-23T05:36:09;29.20;;;8.45;;
79229;SDS011;68663;49.122;17.544;2023-03-23T05:38:38;26.70;;;8.43;;
79229;SDS011;68663;49.122;17.544;2023-03-23T05:41:07;25.73;;;8.32;;
79229;SDS011;68663;49.122;17.544;2023-03-23T05:43:33;26.08;;;8.02;;
79229;SDS011;68663;49.122;17.544;2023-03-23T05:45:58;30.70;;;8.85;;
79229;SDS011;68663;49.122;17.544;2023-03-23T05:48:24;28.30;;;8.55;;
79229;SDS011;68663;49.122;17.544;2023-03-23T05:50:49;29.50;;;9.02;;
79229;SDS011;68663;49.122;17.544;2023-03-23T05:53:15;21.60;;;7.68;;
79229;SDS011;68663;49.122;17.544;2023-03-23T05:55:41;27.15;;;8.27;;
79229;SDS011;68663;49.122;17.544;2023-03-23T05:58:06;21.00;;;7.73;;
79229;SDS011;68663;49.122;17.544;2023-03-23T06:00:32;26.57;;;8.10;;
79229;SDS011;68663;49.122;17.544;2023-03-23T06:02:59;20.85;;;7.25;;
79229;SDS011;68663;49.122;17.544;2023-03-23T06:05:26;26.20;;;7.80;;
79229;SDS011;68663;49.122;17.544;2023-03-23T06:07:52;20.90;;;6.40;;
79229;SDS011;68663;49.122;17.544;2023-03-23T06:10:18;19.95;;;6.97;;
79229;SDS011;68663;49.122;17.544;2023-03-23T06:12:43;21.83;;;7.22;;
79229;SDS011;68663;49.122;17.544;2023-03-23T06:15:09;22.20;;;7.88;;
79229;SDS011;68663;49.122;17.544;2023-03-23T06:17:36;21.55;;;7.38;;
79229;SDS011;68663;49.122;17.544;2023-03-23T06:20:03;24.92;;;7.45;;
79229;SDS011;68663;49.122;17.544;2023-03-23T06:22:38;16.73;;;7.07;;
79229;SDS011;68663;49.122;17.544;2023-03-23T06:25:07;19.00;;;6.88;;
79229;SDS011;68663;49.122;17.544;2023-03-23T06:27:36;19.63;;;6.80;;
79229;SDS011;68663;49.122;17.544;2023-03-23T06:30:02;18.92;;;6.18;;
79229;SDS011;68663;49.122;17.544;2023-03-23T06:32:28;17.98;;;6.07;;
79229;SDS011;68663;49.122;17.544;2023-03-23T06:34:56;16.40;;;6.63;;
79229;SDS011;68663;49.122;17.544;2023-03-23T06:37:22;18.30;;;5.85;;
79229;SDS011;68663;49.122;17.544;2023-03-23T06:39:48;21.00;;;7.40;;
79229;SDS011;68663;49.122;17.544;2023-03-23T06:42:14;17.60;;;6.55;;
79229;SDS011;68663;49.122;17.544;2023-03-23T06:44:39;18.65;;;5.97;;
79229;SDS011;68663;49.122;17.544;2023-03-23T06:47:05;17.55;;;5.90;;
79229;SDS011;68663;49.122;17.544;2023-03-23T06:49:30;19.67;;;7.22;;
79229;SDS011;68663;49.122;17.544;2023-03-23T06:51:56;16.00;;;5.97;;
79229;SDS011;68663;49.122;17.544;2023-03-23T06:54:22;17.27;;;6.43;;
79229;SDS011;68663;49.122;17.544;2023-03-23T06:56:48;18.40;;;6.85;;
79229;SDS011;68663;49.122;17.544;2023-03-23T06:59:13;18.67;;;6.90;;
79229;SDS011;68663;49.122;17.544;2023-03-23T07:01:39;17.33;;;6.03;;
79229;SDS011;68663;49.122;17.544;2023-03-23T07:04:05;15.30;;;5.65;;
79229;SDS011;68663;49.122;17.544;2023-03-23T07:06:31;17.38;;;6.43;;
79229;SDS011;68663;49.122;17.544;2023-03-23T07:08:56;20.23;;;6.45;;
79229;SDS011;68663;49.122;17.544;2023-03-23T07:11:22;23.38;;;7.07;;
79229;SDS011;68663;49.122;17.544;2023-03-23T07:13:47;20.60;;;6.63;;
79229;SDS011;68663;49.122;17.544;2023-03-23T07:16:14;16.17;;;7.35;;
79229;SDS011;68663;49.122;17.544;2023-03-23T07:18:41;15.85;;;9.38;;
79229;SDS011;68663;49.122;17.544;2023-03-23T07:21:06;13.07;;;8.57;;
79229;SDS011;68663;49.122;17.544;2023-03-23T07:23:32;17.05;;;8.68;;
79229;SDS011;68663;49.122;17.544;2023-03-23T07:25:58;19.50;;;9.90;;
79229;SDS011;68663;49.122;17.544;2023-03-23T07:28:23;19.17;;;8.57;;
79229;SDS011;68663;49.122;17.544;2023-03-23T07:30:49;27.42;;;8.98;;
79229;SDS011;68663;49.122;17.544;2023-03-23T07:33:14;18.27;;;7.85;;
79229;SDS011;68663;49.122;17.544;2023-03-23T07:35:40;19.40;;;8.32;;
79229;SDS011;68663;49.122;17.544;2023-03-23T07:38:06;13.20;;;7.85;;
79229;SDS011;68663;49.122;17.544;2023-03-23T07:40:32;14.00;;;7.95;;
79229;SDS011;68663;49.122;17.544;2023-03-23T07:42:58;13.32;;;7.22;;
79229;SDS011;68663;49.122;17.544;2023-03-23T07:45:25;17.40;;;7.70;;
79229;SDS011;68663;49.122;17.544;2023-03-23T07:47:51;15.30;;;7.55;;
79229;SDS011;68663;49.122;17.544;2023-03-23T07:50:18;12.70;;;6.68;;
79229;SDS011;68663;49.122;17.544;2023-03-23T07:52:47;11.52;;;6.97;;
79229;SDS011;68663;49.122;17.544;2023-03-23T07:55:12;15.73;;;8.10;;
79229;SDS011;68663;49.122;17.544;2023-03-23T07:57:42;10.68;;;7.00;;
79229;SDS011;68663;49.122;17.544;2023-03-23T08:00:11;11.68;;;7.05;;
79229;SDS011;68663;49.122;17.544;2023-03-23T08:02:40;10.90;;;6.55;;
79229;SDS011;68663;49.122;17.544;2023-03-23T08:05:06;9.90;;;6.50;;
79229;SDS011;68663;49.122;17.544;2023-03-23T08:07:33;10.02;;;5.82;;
79229;SDS011;68663;49.122;17.544;2023-03-23T08:09:59;10.20;;;6.53;;
79229;SDS011;68663;49.122;17.544;2023-03-23T08:12:24;14.05;;;6.78;;
79229;SDS011;68663;49.122;17.544;2023-03-23T08:14:50;9.93;;;6.28;;
79229;SDS011;68663;49.122;17.544;2023-03-23T08:17:17;12.57;;;7.20;;
79229;SDS011;68663;49.122;17.544;2023-03-23T08:19:42;10.40;;;6.20;;
79229;SDS011;68663;49.122;17.544;2023-03-23T08:22:10;10.23;;;5.68;;
79229;SDS011;68663;49.122;17.544;2023-03-23T08:24:36;9.15;;;6.45;;
79229;SDS011;68663;49.122;17.544;2023-03-23T08:27:02;10.35;;;6.45;;
79229;SDS011;68663;49.122;17.544;2023-03-23T08:29:28;10.35;;;6.15;;
79229;SDS011;68663;49.122;17.544;2023-03-23T08:31:56;15.23;;;6.82;;
79229;SDS011;68663;49.122;17.544;2023-03-23T08:34:22;9.35;;;5.97;;
79229;SDS011;68663;49.122;17.544;2023-03-23T08:36:48;11.48;;;6.85;;
79229;SDS011;68663;49.122;17.544;2023-03-23T08:39:13;11.45;;;6.47;;
79229;SDS011;68663;49.122;17.544;2023-03-23T08:41:43;9.13;;;5.75;;
79229;SDS011;68663;49.122;17.544;2023-03-23T08:44:09;10.00;;;6.32;;
79229;SDS011;68663;49.122;17.544;2023-03-23T08:46:35;10.82;;;6.03;;
79229;SDS011;68663;49.122;17.544;2023-03-23T08:49:00;10.65;;;5.97;;
79229;SDS011;68663;49.122;17.544;2023-03-23T08:51:26;9.40;;;6.10;;
79229;SDS011;68663;49.122;17.544;2023-03-23T08:53:51;7.80;;;5.63;;
79229;SDS011;68663;49.122;17.544;2023-03-23T08:56:17;8.27;;;6.00;;
79229;SDS011;68663;49.122;17.544;2023-03-23T08:58:43;8.52;;;5.45;;
79229;SDS011;68663;49.122;17.544;2023-03-23T09:01:08;8.50;;;5.28;;
79229;SDS011;68663;49.122;17.544;2023-03-23T09:03:37;10.48;;;6.30;;
79229;SDS011;68663;49.122;17.544;2023-03-23T09:06:04;8.07;;;5.70;;
79229;SDS011;68663;49.122;17.544;2023-03-23T09:08:31;8.57;;;5.88;;
79229;SDS011;68663;49.122;17.544;2023-03-23T09:11:00;8.85;;;6.25;;
79229;SDS011;68663;49.122;17.544;2023-03-23T09:13:27;9.65;;;5.75;;
79229;SDS011;68663;49.122;17.544;2023-03-23T09:15:53;8.23;;;5.60;;
79229;SDS011;68663;49.122;17.544;2023-03-23T09:18:18;9.18;;;5.97;;
79229;SDS011;68663;49.122;17.544;2023-03-23T09:20:44;6.78;;;5.13;;
79229;SDS011;68663;49.122;17.544;2023-03-23T09:23:10;10.50;;;5.32;;
79229;SDS011;68663;49.122;17.544;2023-03-23T09:25:38;8.45;;;6.03;;
79229;SDS011;68663;49.122;17.544;2023-03-23T09:28:04;7.40;;;4.95;;
79229;SDS011;68663;49.122;17.544;2023-03-23T09:30:30;12.55;;;6.43;;
79229;SDS011;68663;49.122;17.544;2023-03-23T09:32:58;9.43;;;5.10;;
79229;SDS011;68663;49.122;17.544;2023-03-23T09:35:26;8.30;;;5.60;;
79229;SDS011;68663;49.122;17.544;2023-03-23T09:37:53;7.57;;;5.03;;
79229;SDS011;68663;49.122;17.544;2023-03-23T09:40:20;8.50;;;5.32;;
79229;SDS011;68663;49.122;17.544;2023-03-23T09:48:44;5.45;;;4.47;;
79229;SDS011;68663;49.122;17.544;2023-03-23T09:54:01;8.55;;;4.65;;
79229;SDS011;68663;49.122;17.544;2023-03-23T09:56:31;9.90;;;5.45;;
79229;SDS011;68663;49.122;17.544;2023-03-23T09:59:02;8.38;;;5.45;;
79229;SDS011;68663;49.122;17.544;2023-03-23T10:01:44;6.47;;;4.78;;
79229;SDS011;68663;49.122;17.544;2023-03-23T10:04:32;9.13;;;5.22;;
79229;SDS011;68663;49.122;17.544;2023-03-23T10:07:22;7.78;;;5.10;;
79229;SDS011;68663;49.122;17.544;2023-03-23T10:09:54;9.98;;;4.90;;
79229;SDS011;68663;49.122;17.544;2023-03-23T10:15:12;6.65;;;4.60;;
79229;SDS011;68663;49.122;17.544;2023-03-23T10:20:33;7.35;;;5.30;;
79229;SDS011;68663;49.122;17.544;2023-03-23T10:25:37;6.80;;;4.80;;
79229;SDS011;68663;49.122;17.544;2023-03-23T10:28:42;5.97;;;4.75;;
79229;SDS011;68663;49.122;17.544;2023-03-23T10:31:18;7.10;;;4.75;;
79229;SDS011;68663;49.122;17.544;2023-03-23T10:33:48;6.97;;;4.90;;
79229;SDS011;68663;49.122;17.544;2023-03-23T10:36:18;6.70;;;5.07;;
79229;SDS011;68663;49.122;17.544;2023-03-23T10:38:53;7.32;;;4.70;;
79229;SDS011;68663;49.122;17.544;2023-03-23T10:41:24;6.75;;;4.20;;
79229;SDS011;68663;49.122;17.544;2023-03-23T10:43:50;7.93;;;5.00;;
79229;SDS011;68663;49.122;17.544;2023-03-23T10:49:19;6.43;;;4.60;;
79229;SDS011;68663;49.122;17.544;2023-03-23T10:51:53;5.95;;;4.43;;
79229;SDS011;68663;49.122;17.544;2023-03-23T10:54:31;7.22;;;4.78;;
79229;SDS011;68663;49.122;17.544;2023-03-23T10:57:00;7.20;;;4.30;;
79229;SDS011;68663;49.122;17.544;2023-03-23T10:59:40;7.38;;;4.35;;
79229;SDS011;68663;49.122;17.544;2023-03-23T11:02:12;6.63;;;4.72;;
79229;SDS011;68663;49.122;17.544;2023-03-23T11:04:44;6.40;;;4.40;;
79229;SDS011;68663;49.122;17.544;2023-03-23T11:07:15;7.38;;;4.32;;
79229;SDS011;68663;49.122;17.544;2023-03-23T11:09:55;8.45;;;5.55;;
79229;SDS011;68663;49.122;17.544;2023-03-23T11:12:23;7.00;;;4.90;;
79229;SDS011;68663;49.122;17.544;2023-03-23T11:14:49;7.60;;;5.05;;
79229;SDS011;68663;49.122;17.544;2023-03-23T11:17:25;6.80;;;5.45;;
79229;SDS011;68663;49.122;17.544;2023-03-23T11:19:52;7.35;;;4.80;;
79229;SDS011;68663;49.122;17.544;2023-03-23T11:22:26;6.75;;;5.32;;
79229;SDS011;68663;49.122;17.544;2023-03-23T11:24:54;7.85;;;5.00;;
79229;SDS011;68663;49.122;17.544;2023-03-23T11:27:23;8.43;;;4.95;;
79229;SDS011;68663;49.122;17.544;2023-03-23T11:32:52;7.65;;;5.25;;
79229;SDS011;68663;49.122;17.544;2023-03-23T11:35:20;8.82;;;5.25;;
79229;SDS011;68663;49.122;17.544;2023-03-23T11:37:52;7.00;;;4.70;;
79229;SDS011;68663;49.122;17.544;2023-03-23T11:40:27;6.55;;;4.65;;
79229;SDS011;68663;49.122;17.544;2023-03-23T11:43:07;7.88;;;5.13;;
79229;SDS011;68663;49.122;17.544;2023-03-23T11:45:39;8.13;;;5.80;;
79229;SDS011;68663;49.122;17.544;2023-03-23T11:51:12;8.93;;;5.15;;
79229;SDS011;68663;49.122;17.544;2023-03-23T11:56:51;6.95;;;4.82;;
79229;SDS011;68663;49.122;17.544;2023-03-23T11:59:18;8.43;;;4.55;;
79229;SDS011;68663;49.122;17.544;2023-03-23T12:05:36;6.28;;;4.50;;
79229;SDS011;68663;49.122;17.544;2023-03-23T12:21:08;6.97;;;4.82;;
79229;SDS011;68663;49.122;17.544;2023-03-23T12:26:30;6.03;;;4.93;;
79229;SDS011;68663;49.122;17.544;2023-03-23T12:29:33;7.25;;;4.95;;
79229;SDS011;68663;49.122;17.544;2023-03-23T12:43:13;7.38;;;4.45;;
79229;SDS011;68663;49.122;17.544;2023-03-23T12:48:16;6.00;;;4.32;;
79229;SDS011;68663;49.122;17.544;2023-03-23T12:53:36;6.80;;;3.97;;
79229;SDS011;68663;49.122;17.544;2023-03-23T12:56:11;5.22;;;3.78;;
79229;SDS011;68663;49.122;17.544;2023-03-23T12:58:44;6.82;;;4.07;;
79229;SDS011;68663;49.122;17.544;2023-03-23T13:01:22;4.85;;;3.85;;
79229;SDS011;68663;49.122;17.544;2023-03-23T13:06:41;5.85;;;3.63;;
79229;SDS011;68663;49.122;17.544;2023-03-23T13:11:53;6.22;;;3.90;;
79229;SDS011;68663;49.122;17.544;2023-03-23T13:24:51;9.93;;;4.88;;
79229;SDS011;68663;49.122;17.544;2023-03-23T13:27:24;10.18;;;4.28;;
79229;SDS011;68663;49.122;17.544;2023-03-23T13:29:53;9.65;;;4.60;;
79229;SDS011;68663;49.122;17.544;2023-03-23T13:32:29;6.75;;;5.00;;
79229;SDS011;68663;49.122;17.544;2023-03-23T13:34:55;7.20;;;5.28;;
79229;SDS011;68663;49.122;17.544;2023-03-23T13:37:22;7.57;;;5.22;;
79229;SDS011;68663;49.122;17.544;2023-03-23T13:39:53;8.27;;;5.05;;
79229;SDS011;68663;49.122;17.544;2023-03-23T13:49:56;7.50;;;4.72;;
79229;SDS011;68663;49.122;17.544;2023-03-23T13:57:49;7.07;;;5.40;;
79229;SDS011;68663;49.122;17.544;2023-03-23T14:05:45;8.35;;;5.50;;
79229;SDS011;68663;49.122;17.544;2023-03-23T14:08:23;13.43;;;5.35;;
79229;SDS011;68663;49.122;17.544;2023-03-23T14:11:09;8.20;;;5.18;;
79229;SDS011;68663;49.122;17.544;2023-03-23T14:19:13;9.93;;;5.57;;
79229;SDS011;68663;49.122;17.544;2023-03-23T14:21:48;8.63;;;4.43;;
79229;SDS011;68663;49.122;17.544;2023-03-23T14:24:16;8.00;;;4.88;;
79229;SDS011;68663;49.122;17.544;2023-03-23T14:26:45;6.75;;;4.25;;
79229;SDS011;68663;49.122;17.544;2023-03-23T14:29:11;10.93;;;4.97;;
79229;SDS011;68663;49.122;17.544;2023-03-23T14:31:38;10.63;;;4.47;;
79229;SDS011;68663;49.122;17.544;2023-03-23T14:34:15;7.57;;;4.75;;
79229;SDS011;68663;49.122;17.544;2023-03-23T14:36:43;7.70;;;4.60;;
79229;SDS011;68663;49.122;17.544;2023-03-23T14:39:15;7.35;;;5.10;;
79229;SDS011;68663;49.122;17.544;2023-03-23T14:41:45;11.15;;;4.55;;
79229;SDS011;68663;49.122;17.544;2023-03-23T14:44:16;5.85;;;4.28;;
79229;SDS011;68663;49.122;17.544;2023-03-23T14:46:46;4.88;;;3.85;;
79229;SDS011;68663;49.122;17.544;2023-03-23T14:49:14;6.38;;;4.43;;
79229;SDS011;68663;49.122;17.544;2023-03-23T14:51:51;12.40;;;4.43;;
79229;SDS011;68663;49.122;17.544;2023-03-23T14:54:21;9.23;;;4.40;;
79229;SDS011;68663;49.122;17.544;2023-03-23T14:56:51;8.50;;;4.70;;
79229;SDS011;68663;49.122;17.544;2023-03-23T14:59:16;9.73;;;4.60;;
79229;SDS011;68663;49.122;17.544;2023-03-23T15:01:42;6.13;;;4.72;;
79229;SDS011;68663;49.122;17.544;2023-03-23T15:04:12;8.57;;;4.50;;
79229;SDS011;68663;49.122;17.544;2023-03-23T15:06:43;6.43;;;4.13;;
79229;SDS011;68663;49.122;17.544;2023-03-23T15:09:12;5.80;;;3.75;;
79229;SDS011;68663;49.122;17.544;2023-03-23T15:11:40;8.00;;;4.03;;
79229;SDS011;68663;49.122;17.544;2023-03-23T15:14:15;7.75;;;3.97;;
79229;SDS011;68663;49.122;17.544;2023-03-23T15:16:47;5.45;;;3.88;;
79229;SDS011;68663;49.122;17.544;2023-03-23T15:19:19;4.82;;;3.78;;
79229;SDS011;68663;49.122;17.544;2023-03-23T15:21:55;5.97;;;4.07;;
79229;SDS011;68663;49.122;17.544;2023-03-23T15:24:33;5.53;;;3.88;;
79229;SDS011;68663;49.122;17.544;2023-03-23T15:27:14;4.70;;;3.40;;
79229;SDS011;68663;49.122;17.544;2023-03-23T15:29:47;5.93;;;3.80;;
79229;SDS011;68663;49.122;17.544;2023-03-23T15:32:21;5.07;;;3.50;;
79229;SDS011;68663;49.122;17.544;2023-03-23T15:34:48;7.38;;;3.67;;
79229;SDS011;68663;49.122;17.544;2023-03-23T15:37:27;7.05;;;3.50;;
79229;SDS011;68663;49.122;17.544;2023-03-23T15:39:56;8.98;;;3.45;;
79229;SDS011;68663;49.122;17.544;2023-03-23T15:42:26;5.40;;;3.13;;
79229;SDS011;68663;49.122;17.544;2023-03-23T15:45:01;4.20;;;3.33;;
79229;SDS011;68663;49.122;17.544;2023-03-23T15:50:13;4.35;;;3.50;;
79229;SDS011;68663;49.122;17.544;2023-03-23T15:52:56;5.28;;;3.60;;
79229;SDS011;68663;49.122;17.544;2023-03-23T15:55:27;3.92;;;3.53;;
79229;SDS011;68663;49.122;17.544;2023-03-23T15:57:54;6.03;;;3.25;;
79229;SDS011;68663;49.122;17.544;2023-03-23T16:00:22;5.93;;;3.08;;
79229;SDS011;68663;49.122;17.544;2023-03-23T16:02:52;6.43;;;3.05;;
79229;SDS011;68663;49.122;17.544;2023-03-23T16:05:19;5.60;;;3.05;;
79229;SDS011;68663;49.122;17.544;2023-03-23T16:07:45;4.10;;;2.85;;
79229;SDS011;68663;49.122;17.544;2023-03-23T16:10:14;5.07;;;3.20;;
79229;SDS011;68663;49.122;17.544;2023-03-23T16:12:41;5.00;;;2.97;;
79229;SDS011;68663;49.122;17.544;2023-03-23T16:15:07;3.60;;;3.05;;
79229;SDS011;68663;49.122;17.544;2023-03-23T16:17:33;4.22;;;2.90;;
79229;SDS011;68663;49.122;17.544;2023-03-23T16:19:59;4.90;;;3.40;;
79229;SDS011;68663;49.122;17.544;2023-03-23T16:22:24;6.07;;;3.27;;
79229;SDS011;68663;49.122;17.544;2023-03-23T16:24:49;5.10;;;3.40;;
79229;SDS011;68663;49.122;17.544;2023-03-23T16:27:15;3.83;;;2.92;;
79229;SDS011;68663;49.122;17.544;2023-03-23T16:29:41;3.67;;;2.70;;
79229;SDS011;68663;49.122;17.544;2023-03-23T16:32:08;3.65;;;2.90;;
79229;SDS011;68663;49.122;17.544;2023-03-23T16:34:33;4.13;;;2.63;;
79229;SDS011;68663;49.122;17.544;2023-03-23T16:36:59;4.00;;;2.75;;
79229;SDS011;68663;49.122;17.544;2023-03-23T16:39:25;4.47;;;3.08;;
79229;SDS011;68663;49.122;17.544;2023-03-23T16:41:51;5.75;;;2.90;;
79229;SDS011;68663;49.122;17.544;2023-03-23T16:44:16;4.03;;;2.83;;
79229;SDS011;68663;49.122;17.544;2023-03-23T16:46:41;3.72;;;2.92;;
79229;SDS011;68663;49.122;17.544;2023-03-23T16:49:07;5.05;;;2.97;;
79229;SDS011;68663;49.122;17.544;2023-03-23T16:51:33;3.58;;;2.75;;